sensor_id;sensor_type;location;lat;lon;timestamp;P1;durP1;ratioP1;P2;durP2;ratioP2
56999;SDS011;42891;50.006;21.964;2023-11-21T00:02:47;6.55;;;5.22;;
56999;SDS011;42891;50.006;21.964;2023-11-21T00:06:48;8.20;;;6.10;;
56999;SDS011;42891;50.006;21.964;2023-11-21T00:10:48;7.80;;;5.43;;
56999;SDS011;42891;50.006;21.964;2023-11-21T00:14:48;7.43;;;5.03;;
56999;SDS011;42891;50.006;21.964;2023-11-21T00:18:49;8.75;;;5.60;;
56999;SDS011;42891;50.006;21.964;2023-11-21T00:22:49;8.13;;;5.80;;
56999;SDS011;42891;50.006;21.964;2023-11-21T00:26:49;6.20;;;5.07;;
56999;SDS011;42891;50.006;21.964;2023-11-21T00:30:50;7.53;;;5.82;;
56999;SDS011;42891;50.006;21.964;2023-11-21T00:34:50;8.17;;;5.97;;
56999;SDS011;42891;50.006;21.964;2023-11-21T00:38:50;7.83;;;5.53;;
56999;SDS011;42891;50.006;21.964;2023-11-21T00:42:50;6.83;;;5.10;;
56999;SDS011;42891;50.006;21.964;2023-11-21T00:46:51;7.63;;;5.77;;
56999;SDS011;42891;50.006;21.964;2023-11-21T00:50:51;8.20;;;6.05;;
56999;SDS011;42891;50.006;21.964;2023-11-21T00:54:51;8.67;;;6.10;;
56999;SDS011;42891;50.006;21.964;2023-11-21T00:58:52;7.57;;;5.50;;
56999;SDS011;42891;50.006;21.964;2023-11-21T01:02:52;10.55;;;5.72;;
56999;SDS011;42891;50.006;21.964;2023-11-21T01:06:52;10.87;;;6.53;;
56999;SDS011;42891;50.006;21.964;2023-11-21T01:10:53;25.70;;;9.85;;
56999;SDS011;42891;50.006;21.964;2023-11-21T01:14:53;8.73;;;5.72;;
56999;SDS011;42891;50.006;21.964;2023-11-21T01:18:54;19.05;;;9.45;;
56999;SDS011;42891;50.006;21.964;2023-11-21T01:22:55;34.72;;;12.65;;
56999;SDS011;42891;50.006;21.964;2023-11-21T01:26:55;16.42;;;8.18;;
56999;SDS011;42891;50.006;21.964;2023-11-21T01:30:55;16.60;;;8.13;;
56999;SDS011;42891;50.006;21.964;2023-11-21T01:34:56;11.45;;;6.50;;
56999;SDS011;42891;50.006;21.964;2023-11-21T01:38:56;9.30;;;5.80;;
56999;SDS011;42891;50.006;21.964;2023-11-21T01:42:59;11.88;;;6.65;;
56999;SDS011;42891;50.006;21.964;2023-11-21T01:46:59;8.27;;;5.13;;
56999;SDS011;42891;50.006;21.964;2023-11-21T01:51:04;7.60;;;5.22;;
56999;SDS011;42891;50.006;21.964;2023-11-21T01:55:06;8.18;;;5.25;;
56999;SDS011;42891;50.006;21.964;2023-11-21T01:59:08;7.85;;;5.55;;
56999;SDS011;42891;50.006;21.964;2023-11-21T02:03:10;5.20;;;4.38;;
56999;SDS011;42891;50.006;21.964;2023-11-21T02:07:10;5.43;;;4.50;;
56999;SDS011;42891;50.006;21.964;2023-11-21T02:11:11;7.28;;;5.18;;
56999;SDS011;42891;50.006;21.964;2023-11-21T02:15:14;7.47;;;5.88;;
56999;SDS011;42891;50.006;21.964;2023-11-21T02:19:20;7.85;;;5.03;;
56999;SDS011;42891;50.006;21.964;2023-11-21T02:23:25;6.90;;;4.95;;
56999;SDS011;42891;50.006;21.964;2023-11-21T02:27:28;6.57;;;4.95;;
56999;SDS011;42891;50.006;21.964;2023-11-21T02:31:29;5.27;;;4.10;;
56999;SDS011;42891;50.006;21.964;2023-11-21T02:35:30;8.82;;;4.93;;
56999;SDS011;42891;50.006;21.964;2023-11-21T02:39:31;5.20;;;4.15;;
56999;SDS011;42891;50.006;21.964;2023-11-21T02:43:31;5.28;;;4.78;;
56999;SDS011;42891;50.006;21.964;2023-11-21T02:47:32;6.63;;;5.17;;
56999;SDS011;42891;50.006;21.964;2023-11-21T02:51:32;6.80;;;5.45;;
56999;SDS011;42891;50.006;21.964;2023-11-21T02:55:33;7.80;;;5.10;;
56999;SDS011;42891;50.006;21.964;2023-11-21T02:59:36;7.50;;;5.72;;
56999;SDS011;42891;50.006;21.964;2023-11-21T03:03:37;7.38;;;5.15;;
56999;SDS011;42891;50.006;21.964;2023-11-21T03:07:39;6.22;;;5.25;;
56999;SDS011;42891;50.006;21.964;2023-11-21T03:11:40;7.07;;;5.50;;
56999;SDS011;42891;50.006;21.964;2023-11-21T03:15:40;6.78;;;4.70;;
56999;SDS011;42891;50.006;21.964;2023-11-21T03:19:43;6.47;;;4.87;;
56999;SDS011;42891;50.006;21.964;2023-11-21T03:23:44;5.95;;;4.75;;
56999;SDS011;42891;50.006;21.964;2023-11-21T03:27:44;5.65;;;5.05;;
56999;SDS011;42891;50.006;21.964;2023-11-21T03:31:45;6.60;;;5.35;;
56999;SDS011;42891;50.006;21.964;2023-11-21T03:35:45;6.47;;;4.87;;
56999;SDS011;42891;50.006;21.964;2023-11-21T03:39:46;5.90;;;5.10;;
56999;SDS011;42891;50.006;21.964;2023-11-21T03:43:47;6.68;;;5.38;;
56999;SDS011;42891;50.006;21.964;2023-11-21T03:47:47;8.80;;;5.67;;
56999;SDS011;42891;50.006;21.964;2023-11-21T03:51:47;10.27;;;5.67;;
56999;SDS011;42891;50.006;21.964;2023-11-21T03:55:47;7.47;;;5.13;;
56999;SDS011;42891;50.006;21.964;2023-11-21T03:59:49;11.18;;;6.03;;
56999;SDS011;42891;50.006;21.964;2023-11-21T04:03:49;9.63;;;5.90;;
56999;SDS011;42891;50.006;21.964;2023-11-21T04:07:50;8.25;;;5.70;;
56999;SDS011;42891;50.006;21.964;2023-11-21T04:11:51;8.88;;;6.63;;
56999;SDS011;42891;50.006;21.964;2023-11-21T04:15:52;7.97;;;6.40;;
56999;SDS011;42891;50.006;21.964;2023-11-21T04:19:52;8.43;;;6.70;;
56999;SDS011;42891;50.006;21.964;2023-11-21T04:23:52;10.38;;;6.70;;
56999;SDS011;42891;50.006;21.964;2023-11-21T04:27:53;13.52;;;7.32;;
56999;SDS011;42891;50.006;21.964;2023-11-21T04:31:54;11.43;;;7.30;;
56999;SDS011;42891;50.006;21.964;2023-11-21T04:35:54;12.27;;;7.60;;
56999;SDS011;42891;50.006;21.964;2023-11-21T04:39:54;11.38;;;6.95;;
56999;SDS011;42891;50.006;21.964;2023-11-21T04:43:55;11.82;;;6.95;;
56999;SDS011;42891;50.006;21.964;2023-11-21T04:47:55;9.33;;;6.57;;
56999;SDS011;42891;50.006;21.964;2023-11-21T04:51:56;9.30;;;5.90;;
56999;SDS011;42891;50.006;21.964;2023-11-21T04:55:56;9.27;;;5.63;;
56999;SDS011;42891;50.006;21.964;2023-11-21T04:59:56;8.18;;;5.50;;
56999;SDS011;42891;50.006;21.964;2023-11-21T05:03:57;7.90;;;5.72;;
56999;SDS011;42891;50.006;21.964;2023-11-21T05:07:57;9.07;;;5.77;;
56999;SDS011;42891;50.006;21.964;2023-11-21T05:11:57;9.90;;;6.07;;
56999;SDS011;42891;50.006;21.964;2023-11-21T05:15:58;8.38;;;5.50;;
56999;SDS011;42891;50.006;21.964;2023-11-21T05:19:58;9.68;;;6.13;;
56999;SDS011;42891;50.006;21.964;2023-11-21T05:23:58;7.97;;;5.57;;
56999;SDS011;42891;50.006;21.964;2023-11-21T05:27:59;6.05;;;4.88;;
56999;SDS011;42891;50.006;21.964;2023-11-21T05:32:01;15.48;;;7.30;;
56999;SDS011;42891;50.006;21.964;2023-11-21T05:36:01;8.18;;;5.68;;
56999;SDS011;42891;50.006;21.964;2023-11-21T05:40:02;7.00;;;5.65;;
56999;SDS011;42891;50.006;21.964;2023-11-21T05:44:05;8.05;;;6.00;;
56999;SDS011;42891;50.006;21.964;2023-11-21T05:48:06;9.82;;;5.30;;
56999;SDS011;42891;50.006;21.964;2023-11-21T05:52:06;12.30;;;5.60;;
56999;SDS011;42891;50.006;21.964;2023-11-21T05:56:06;7.13;;;5.80;;
56999;SDS011;42891;50.006;21.964;2023-11-21T06:00:08;7.63;;;6.07;;
56999;SDS011;42891;50.006;21.964;2023-11-21T06:04:11;8.70;;;6.00;;
56999;SDS011;42891;50.006;21.964;2023-11-21T06:08:12;7.38;;;6.22;;
56999;SDS011;42891;50.006;21.964;2023-11-21T06:12:13;7.07;;;5.37;;
56999;SDS011;42891;50.006;21.964;2023-11-21T06:16:13;13.48;;;6.65;;
56999;SDS011;42891;50.006;21.964;2023-11-21T06:20:16;16.88;;;6.53;;
56999;SDS011;42891;50.006;21.964;2023-11-21T06:24:18;24.88;;;13.98;;
56999;SDS011;42891;50.006;21.964;2023-11-21T06:28:20;34.22;;;20.42;;
56999;SDS011;42891;50.006;21.964;2023-11-21T06:32:21;23.40;;;14.13;;
56999;SDS011;42891;50.006;21.964;2023-11-21T06:36:22;18.38;;;10.88;;
56999;SDS011;42891;50.006;21.964;2023-11-21T06:40:23;20.37;;;14.70;;
56999;SDS011;42891;50.006;21.964;2023-11-21T06:44:24;47.72;;;12.98;;
56999;SDS011;42891;50.006;21.964;2023-11-21T06:48:25;54.10;;;15.23;;
56999;SDS011;42891;50.006;21.964;2023-11-21T06:52:25;352.33;;;59.67;;
56999;SDS011;42891;50.006;21.964;2023-11-21T06:56:25;304.73;;;66.63;;
56999;SDS011;42891;50.006;21.964;2023-11-21T07:00:26;364.30;;;123.85;;
56999;SDS011;42891;50.006;21.964;2023-11-21T07:04:29;323.08;;;97.65;;
56999;SDS011;42891;50.006;21.964;2023-11-21T07:08:30;260.30;;;90.78;;
56999;SDS011;42891;50.006;21.964;2023-11-21T07:12:30;269.02;;;115.13;;
56999;SDS011;42891;50.006;21.964;2023-11-21T07:16:31;243.90;;;128.80;;
56999;SDS011;42891;50.006;21.964;2023-11-21T07:20:31;161.68;;;91.78;;
56999;SDS011;42891;50.006;21.964;2023-11-21T07:24:32;367.00;;;195.10;;
56999;SDS011;42891;50.006;21.964;2023-11-21T07:28:32;402.95;;;213.55;;
56999;SDS011;42891;50.006;21.964;2023-11-21T07:32:33;428.50;;;205.87;;
56999;SDS011;42891;50.006;21.964;2023-11-21T07:36:33;313.67;;;137.95;;
56999;SDS011;42891;50.006;21.964;2023-11-21T07:40:34;235.23;;;115.57;;
56999;SDS011;42891;50.006;21.964;2023-11-21T07:44:34;406.45;;;184.10;;
56999;SDS011;42891;50.006;21.964;2023-11-21T07:48:34;348.97;;;140.83;;
56999;SDS011;42891;50.006;21.964;2023-11-21T07:52:35;300.38;;;128.20;;
56999;SDS011;42891;50.006;21.964;2023-11-21T07:56:35;316.92;;;139.20;;
56999;SDS011;42891;50.006;21.964;2023-11-21T08:00:35;140.97;;;68.20;;
56999;SDS011;42891;50.006;21.964;2023-11-21T08:04:37;214.00;;;106.93;;
56999;SDS011;42891;50.006;21.964;2023-11-21T08:08:38;31.83;;;19.83;;
56999;SDS011;42891;50.006;21.964;2023-11-21T08:12:38;58.95;;;33.60;;
56999;SDS011;42891;50.006;21.964;2023-11-21T08:16:38;64.10;;;35.40;;
56999;SDS011;42891;50.006;21.964;2023-11-21T08:20:38;38.70;;;24.10;;
56999;SDS011;42891;50.006;21.964;2023-11-21T08:24:39;45.50;;;28.48;;
56999;SDS011;42891;50.006;21.964;2023-11-21T08:28:40;48.00;;;31.60;;
56999;SDS011;42891;50.006;21.964;2023-11-21T08:32:40;51.60;;;35.63;;
56999;SDS011;42891;50.006;21.964;2023-11-21T08:36:41;30.67;;;21.97;;
56999;SDS011;42891;50.006;21.964;2023-11-21T08:40:44;34.67;;;23.00;;
56999;SDS011;42891;50.006;21.964;2023-11-21T08:44:44;31.70;;;19.77;;
56999;SDS011;42891;50.006;21.964;2023-11-21T08:48:45;35.03;;;21.73;;
56999;SDS011;42891;50.006;21.964;2023-11-21T08:52:46;14.37;;;10.40;;
56999;SDS011;42891;50.006;21.964;2023-11-21T08:56:46;24.50;;;14.68;;
56999;SDS011;42891;50.006;21.964;2023-11-21T09:00:46;19.33;;;12.30;;
56999;SDS011;42891;50.006;21.964;2023-11-21T09:04:47;25.80;;;16.10;;
56999;SDS011;42891;50.006;21.964;2023-11-21T09:08:47;21.10;;;14.13;;
56999;SDS011;42891;50.006;21.964;2023-11-21T09:12:47;20.40;;;13.67;;
56999;SDS011;42891;50.006;21.964;2023-11-21T09:16:47;44.33;;;24.30;;
56999;SDS011;42891;50.006;21.964;2023-11-21T09:20:48;246.80;;;113.90;;
56999;SDS011;42891;50.006;21.964;2023-11-21T09:24:48;163.23;;;82.75;;
56999;SDS011;42891;50.006;21.964;2023-11-21T09:28:48;89.78;;;49.92;;
56999;SDS011;42891;50.006;21.964;2023-11-21T09:32:49;151.38;;;81.53;;
56999;SDS011;42891;50.006;21.964;2023-11-21T09:36:50;100.13;;;56.97;;
56999;SDS011;42891;50.006;21.964;2023-11-21T09:40:50;63.08;;;37.25;;
56999;SDS011;42891;50.006;21.964;2023-11-21T09:49:20;30.52;;;15.85;;
56999;SDS011;42891;50.006;21.964;2023-11-21T09:53:25;39.83;;;21.52;;
56999;SDS011;42891;50.006;21.964;2023-11-21T09:57:29;29.53;;;19.23;;
56999;SDS011;42891;50.006;21.964;2023-11-21T10:01:31;20.08;;;13.57;;
56999;SDS011;42891;50.006;21.964;2023-11-21T10:05:32;14.20;;;10.75;;
56999;SDS011;42891;50.006;21.964;2023-11-21T10:09:35;15.85;;;10.43;;
56999;SDS011;42891;50.006;21.964;2023-11-21T10:13:37;14.18;;;10.45;;
56999;SDS011;42891;50.006;21.964;2023-11-21T10:17:39;14.63;;;10.43;;
56999;SDS011;42891;50.006;21.964;2023-11-21T10:21:45;14.13;;;11.07;;
56999;SDS011;42891;50.006;21.964;2023-11-21T10:25:45;5.78;;;5.15;;
56999;SDS011;42891;50.006;21.964;2023-11-21T10:29:46;6.23;;;4.50;;
56999;SDS011;42891;50.006;21.964;2023-11-21T10:33:46;3.83;;;2.50;;
56999;SDS011;42891;50.006;21.964;2023-11-21T10:37:46;4.00;;;3.57;;
56999;SDS011;42891;50.006;21.964;2023-11-21T10:42:00;3.92;;;2.95;;
56999;SDS011;42891;50.006;21.964;2023-11-21T10:46:00;3.00;;;2.70;;
56999;SDS011;42891;50.006;21.964;2023-11-21T10:50:03;4.15;;;3.53;;
56999;SDS011;42891;50.006;21.964;2023-11-21T10:54:04;4.38;;;2.85;;
56999;SDS011;42891;50.006;21.964;2023-11-21T10:58:05;6.00;;;3.20;;
56999;SDS011;42891;50.006;21.964;2023-11-21T11:02:21;6.45;;;5.38;;
56999;SDS011;42891;50.006;21.964;2023-11-21T11:06:25;6.05;;;4.53;;
56999;SDS011;42891;50.006;21.964;2023-11-21T11:10:28;7.65;;;4.80;;
56999;SDS011;42891;50.006;21.964;2023-11-21T11:14:31;5.40;;;4.57;;
56999;SDS011;42891;50.006;21.964;2023-11-21T11:18:33;6.25;;;4.43;;
56999;SDS011;42891;50.006;21.964;2023-11-21T11:35:46;7.67;;;5.10;;
56999;SDS011;42891;50.006;21.964;2023-11-21T11:39:56;6.53;;;5.18;;
56999;SDS011;42891;50.006;21.964;2023-11-21T11:43:56;8.05;;;5.75;;
56999;SDS011;42891;50.006;21.964;2023-11-21T11:47:57;8.43;;;5.75;;
56999;SDS011;42891;50.006;21.964;2023-11-21T11:56:35;5.82;;;5.05;;
56999;SDS011;42891;50.006;21.964;2023-11-21T12:00:37;33.75;;;17.10;;
56999;SDS011;42891;50.006;21.964;2023-11-21T12:04:40;11.50;;;8.00;;
56999;SDS011;42891;50.006;21.964;2023-11-21T12:08:41;6.90;;;5.47;;
56999;SDS011;42891;50.006;21.964;2023-11-21T12:12:42;7.97;;;6.30;;
56999;SDS011;42891;50.006;21.964;2023-11-21T12:16:44;11.45;;;7.82;;
56999;SDS011;42891;50.006;21.964;2023-11-21T12:20:45;11.25;;;8.02;;
56999;SDS011;42891;50.006;21.964;2023-11-21T12:24:48;8.50;;;7.13;;
56999;SDS011;42891;50.006;21.964;2023-11-21T12:28:52;7.80;;;6.70;;
56999;SDS011;42891;50.006;21.964;2023-11-21T12:32:56;8.32;;;6.50;;
56999;SDS011;42891;50.006;21.964;2023-11-21T12:36:57;7.85;;;6.43;;
56999;SDS011;42891;50.006;21.964;2023-11-21T12:40:58;7.05;;;6.18;;
56999;SDS011;42891;50.006;21.964;2023-11-21T12:49:17;10.52;;;7.28;;
56999;SDS011;42891;50.006;21.964;2023-11-21T12:53:18;9.57;;;8.05;;
56999;SDS011;42891;50.006;21.964;2023-11-21T12:57:19;10.80;;;8.48;;
56999;SDS011;42891;50.006;21.964;2023-11-21T13:01:19;14.37;;;10.07;;
56999;SDS011;42891;50.006;21.964;2023-11-21T13:05:23;16.77;;;12.25;;
56999;SDS011;42891;50.006;21.964;2023-11-21T13:09:25;15.98;;;12.10;;
56999;SDS011;42891;50.006;21.964;2023-11-21T13:13:30;15.45;;;11.05;;
56999;SDS011;42891;50.006;21.964;2023-11-21T13:17:31;17.83;;;11.55;;
56999;SDS011;42891;50.006;21.964;2023-11-21T13:21:32;28.95;;;13.20;;
56999;SDS011;42891;50.006;21.964;2023-11-21T13:25:33;40.30;;;18.20;;
56999;SDS011;42891;50.006;21.964;2023-11-21T13:29:34;42.08;;;22.30;;
56999;SDS011;42891;50.006;21.964;2023-11-21T13:33:35;75.30;;;23.80;;
56999;SDS011;42891;50.006;21.964;2023-11-21T13:37:40;73.28;;;27.70;;
56999;SDS011;42891;50.006;21.964;2023-11-21T13:41:42;34.47;;;18.80;;
56999;SDS011;42891;50.006;21.964;2023-11-21T13:45:43;43.00;;;16.07;;
56999;SDS011;42891;50.006;21.964;2023-11-21T13:49:44;41.95;;;16.70;;
56999;SDS011;42891;50.006;21.964;2023-11-21T13:53:45;32.80;;;14.27;;
56999;SDS011;42891;50.006;21.964;2023-11-21T13:57:47;32.95;;;14.52;;
56999;SDS011;42891;50.006;21.964;2023-11-21T14:01:52;30.58;;;14.60;;
56999;SDS011;42891;50.006;21.964;2023-11-21T14:05:55;33.65;;;16.92;;
56999;SDS011;42891;50.006;21.964;2023-11-21T14:09:56;52.60;;;22.25;;
56999;SDS011;42891;50.006;21.964;2023-11-21T14:13:58;58.95;;;25.77;;
56999;SDS011;42891;50.006;21.964;2023-11-21T14:17:59;49.92;;;19.13;;
56999;SDS011;42891;50.006;21.964;2023-11-21T14:22:07;38.50;;;19.98;;
56999;SDS011;42891;50.006;21.964;2023-11-21T14:26:09;48.30;;;21.05;;
56999;SDS011;42891;50.006;21.964;2023-11-21T14:30:13;34.72;;;19.48;;
56999;SDS011;42891;50.006;21.964;2023-11-21T14:34:15;35.03;;;19.40;;
56999;SDS011;42891;50.006;21.964;2023-11-21T14:38:15;30.48;;;17.55;;
56999;SDS011;42891;50.006;21.964;2023-11-21T14:42:16;30.00;;;17.15;;
56999;SDS011;42891;50.006;21.964;2023-11-21T14:46:21;27.95;;;17.10;;
56999;SDS011;42891;50.006;21.964;2023-11-21T14:50:21;39.87;;;21.40;;
56999;SDS011;42891;50.006;21.964;2023-11-21T14:54:40;44.20;;;23.25;;
56999;SDS011;42891;50.006;21.964;2023-11-21T14:58:40;32.83;;;17.75;;
56999;SDS011;42891;50.006;21.964;2023-11-21T15:02:41;32.92;;;17.90;;
56999;SDS011;42891;50.006;21.964;2023-11-21T15:06:50;41.55;;;21.33;;
56999;SDS011;42891;50.006;21.964;2023-11-21T15:10:53;38.35;;;21.02;;
56999;SDS011;42891;50.006;21.964;2023-11-21T15:14:54;54.30;;;25.15;;
56999;SDS011;42891;50.006;21.964;2023-11-21T15:18:57;66.20;;;29.92;;
56999;SDS011;42891;50.006;21.964;2023-11-21T15:22:58;37.55;;;20.50;;
56999;SDS011;42891;50.006;21.964;2023-11-21T15:26:58;32.87;;;18.60;;
56999;SDS011;42891;50.006;21.964;2023-11-21T15:30:59;44.90;;;21.63;;
56999;SDS011;42891;50.006;21.964;2023-11-21T15:34:59;43.00;;;22.40;;
56999;SDS011;42891;50.006;21.964;2023-11-21T15:38:59;50.23;;;23.57;;
56999;SDS011;42891;50.006;21.964;2023-11-21T15:43:00;34.53;;;19.25;;
56999;SDS011;42891;50.006;21.964;2023-11-21T15:47:03;34.03;;;19.30;;
56999;SDS011;42891;50.006;21.964;2023-11-21T15:51:04;49.08;;;24.20;;
56999;SDS011;42891;50.006;21.964;2023-11-21T15:55:05;40.40;;;21.70;;
56999;SDS011;42891;50.006;21.964;2023-11-21T15:59:06;46.58;;;24.58;;
56999;SDS011;42891;50.006;21.964;2023-11-21T16:03:07;38.47;;;21.65;;
56999;SDS011;42891;50.006;21.964;2023-11-21T16:07:09;40.55;;;20.65;;
56999;SDS011;42891;50.006;21.964;2023-11-21T16:11:10;39.55;;;22.45;;
56999;SDS011;42891;50.006;21.964;2023-11-21T16:15:11;36.37;;;19.90;;
56999;SDS011;42891;50.006;21.964;2023-11-21T16:19:11;42.70;;;22.33;;
56999;SDS011;42891;50.006;21.964;2023-11-21T16:23:12;48.38;;;24.45;;
56999;SDS011;42891;50.006;21.964;2023-11-21T16:27:12;44.65;;;22.25;;
56999;SDS011;42891;50.006;21.964;2023-11-21T16:31:12;40.40;;;21.45;;
56999;SDS011;42891;50.006;21.964;2023-11-21T16:35:13;35.53;;;19.25;;
56999;SDS011;42891;50.006;21.964;2023-11-21T16:39:13;37.30;;;21.37;;
56999;SDS011;42891;50.006;21.964;2023-11-21T16:43:14;51.42;;;26.58;;
56999;SDS011;42891;50.006;21.964;2023-11-21T16:47:14;49.20;;;26.95;;
56999;SDS011;42891;50.006;21.964;2023-11-21T16:51:17;41.10;;;21.05;;
56999;SDS011;42891;50.006;21.964;2023-11-21T16:55:17;42.08;;;20.92;;
56999;SDS011;42891;50.006;21.964;2023-11-21T16:59:18;57.20;;;27.43;;
56999;SDS011;42891;50.006;21.964;2023-11-21T17:03:18;44.53;;;23.00;;
56999;SDS011;42891;50.006;21.964;2023-11-21T17:07:20;49.60;;;22.08;;
56999;SDS011;42891;50.006;21.964;2023-11-21T17:11:21;54.35;;;25.02;;
56999;SDS011;42891;50.006;21.964;2023-11-21T17:15:21;48.13;;;25.73;;
56999;SDS011;42891;50.006;21.964;2023-11-21T17:19:22;48.70;;;22.73;;
56999;SDS011;42891;50.006;21.964;2023-11-21T17:23:22;50.03;;;22.33;;
56999;SDS011;42891;50.006;21.964;2023-11-21T17:27:22;48.60;;;23.27;;
56999;SDS011;42891;50.006;21.964;2023-11-21T17:31:23;42.15;;;22.05;;
56999;SDS011;42891;50.006;21.964;2023-11-21T17:35:24;45.25;;;22.83;;
56999;SDS011;42891;50.006;21.964;2023-11-21T17:39:24;57.23;;;24.97;;
56999;SDS011;42891;50.006;21.964;2023-11-21T17:43:24;84.07;;;37.60;;
56999;SDS011;42891;50.006;21.964;2023-11-21T17:47:25;67.67;;;28.27;;
56999;SDS011;42891;50.006;21.964;2023-11-21T17:51:26;63.20;;;29.10;;
56999;SDS011;42891;50.006;21.964;2023-11-21T17:55:26;72.53;;;30.80;;
56999;SDS011;42891;50.006;21.964;2023-11-21T17:59:26;51.63;;;24.93;;
56999;SDS011;42891;50.006;21.964;2023-11-21T18:03:27;62.97;;;27.17;;
56999;SDS011;42891;50.006;21.964;2023-11-21T18:07:27;69.20;;;31.20;;
56999;SDS011;42891;50.006;21.964;2023-11-21T18:11:27;99.25;;;40.20;;
56999;SDS011;42891;50.006;21.964;2023-11-21T18:15:28;63.40;;;30.05;;
56999;SDS011;42891;50.006;21.964;2023-11-21T18:19:28;62.08;;;25.00;;
56999;SDS011;42891;50.006;21.964;2023-11-21T18:23:28;65.90;;;30.37;;
56999;SDS011;42891;50.006;21.964;2023-11-21T18:27:29;68.85;;;27.83;;
56999;SDS011;42891;50.006;21.964;2023-11-21T18:31:29;51.17;;;24.25;;
56999;SDS011;42891;50.006;21.964;2023-11-21T18:35:30;59.85;;;27.08;;
56999;SDS011;42891;50.006;21.964;2023-11-21T18:39:30;57.92;;;27.13;;
56999;SDS011;42891;50.006;21.964;2023-11-21T18:43:31;50.53;;;25.23;;
56999;SDS011;42891;50.006;21.964;2023-11-21T18:47:31;54.47;;;25.15;;
56999;SDS011;42891;50.006;21.964;2023-11-21T18:51:32;67.13;;;29.77;;
56999;SDS011;42891;50.006;21.964;2023-11-21T18:55:34;66.38;;;26.42;;
56999;SDS011;42891;50.006;21.964;2023-11-21T18:59:35;76.15;;;30.35;;
56999;SDS011;42891;50.006;21.964;2023-11-21T19:03:36;73.28;;;27.55;;
56999;SDS011;42891;50.006;21.964;2023-11-21T19:07:36;58.87;;;27.93;;
56999;SDS011;42891;50.006;21.964;2023-11-21T19:11:36;64.70;;;28.88;;
56999;SDS011;42891;50.006;21.964;2023-11-21T19:15:37;66.83;;;32.23;;
56999;SDS011;42891;50.006;21.964;2023-11-21T19:19:38;75.82;;;28.13;;
56999;SDS011;42891;50.006;21.964;2023-11-21T19:23:38;58.77;;;25.53;;
56999;SDS011;42891;50.006;21.964;2023-11-21T19:27:39;67.60;;;28.73;;
56999;SDS011;42891;50.006;21.964;2023-11-21T19:31:39;60.78;;;25.38;;
56999;SDS011;42891;50.006;21.964;2023-11-21T19:35:39;65.97;;;29.05;;
56999;SDS011;42891;50.006;21.964;2023-11-21T19:39:40;73.55;;;28.02;;
56999;SDS011;42891;50.006;21.964;2023-11-21T19:43:40;62.83;;;24.92;;
56999;SDS011;42891;50.006;21.964;2023-11-21T19:47:42;68.30;;;25.17;;
56999;SDS011;42891;50.006;21.964;2023-11-21T19:51:42;59.65;;;23.67;;
56999;SDS011;42891;50.006;21.964;2023-11-21T19:55:43;65.03;;;26.15;;
56999;SDS011;42891;50.006;21.964;2023-11-21T19:59:43;53.10;;;24.73;;
56999;SDS011;42891;50.006;21.964;2023-11-21T20:03:45;44.75;;;21.95;;
56999;SDS011;42891;50.006;21.964;2023-11-21T20:07:45;55.35;;;21.95;;
56999;SDS011;42891;50.006;21.964;2023-11-21T20:11:45;52.08;;;24.75;;
56999;SDS011;42891;50.006;21.964;2023-11-21T20:15:50;129.03;;;27.80;;
56999;SDS011;42891;50.006;21.964;2023-11-21T20:19:50;72.57;;;26.08;;
56999;SDS011;42891;50.006;21.964;2023-11-21T20:23:51;67.25;;;26.35;;
56999;SDS011;42891;50.006;21.964;2023-11-21T20:27:51;62.97;;;23.13;;
56999;SDS011;42891;50.006;21.964;2023-11-21T20:31:52;45.37;;;24.13;;
56999;SDS011;42891;50.006;21.964;2023-11-21T20:35:52;50.78;;;23.90;;
56999;SDS011;42891;50.006;21.964;2023-11-21T20:39:53;52.20;;;21.83;;
56999;SDS011;42891;50.006;21.964;2023-11-21T20:43:53;41.67;;;20.58;;
56999;SDS011;42891;50.006;21.964;2023-11-21T20:47:53;47.30;;;23.55;;
56999;SDS011;42891;50.006;21.964;2023-11-21T20:51:54;42.20;;;20.83;;
56999;SDS011;42891;50.006;21.964;2023-11-21T20:55:54;50.93;;;20.50;;
56999;SDS011;42891;50.006;21.964;2023-11-21T20:59:55;54.25;;;23.10;;
56999;SDS011;42891;50.006;21.964;2023-11-21T21:03:55;43.70;;;21.33;;
56999;SDS011;42891;50.006;21.964;2023-11-21T21:07:56;39.20;;;19.83;;
56999;SDS011;42891;50.006;21.964;2023-11-21T21:11:57;41.33;;;20.02;;
56999;SDS011;42891;50.006;21.964;2023-11-21T21:15:59;40.60;;;19.98;;
56999;SDS011;42891;50.006;21.964;2023-11-21T21:20:00;44.60;;;23.10;;
56999;SDS011;42891;50.006;21.964;2023-11-21T21:24:00;38.63;;;21.83;;
56999;SDS011;42891;50.006;21.964;2023-11-21T21:28:00;32.30;;;18.10;;
56999;SDS011;42891;50.006;21.964;2023-11-21T21:32:01;31.85;;;17.83;;
56999;SDS011;42891;50.006;21.964;2023-11-21T21:36:01;37.47;;;19.90;;
56999;SDS011;42891;50.006;21.964;2023-11-21T21:40:02;32.70;;;17.88;;
56999;SDS011;42891;50.006;21.964;2023-11-21T21:44:02;34.17;;;17.83;;
56999;SDS011;42891;50.006;21.964;2023-11-21T21:48:03;36.42;;;19.58;;
56999;SDS011;42891;50.006;21.964;2023-11-21T21:52:04;36.38;;;17.42;;
56999;SDS011;42891;50.006;21.964;2023-11-21T21:56:04;30.15;;;16.75;;
56999;SDS011;42891;50.006;21.964;2023-11-21T22:00:05;27.73;;;15.98;;
56999;SDS011;42891;50.006;21.964;2023-11-21T22:04:07;32.08;;;18.80;;
56999;SDS011;42891;50.006;21.964;2023-11-21T22:08:08;35.63;;;18.58;;
56999;SDS011;42891;50.006;21.964;2023-11-21T22:12:09;32.40;;;18.03;;
56999;SDS011;42891;50.006;21.964;2023-11-21T22:16:10;28.83;;;15.55;;
56999;SDS011;42891;50.006;21.964;2023-11-21T22:20:10;28.63;;;15.77;;
56999;SDS011;42891;50.006;21.964;2023-11-21T22:24:11;24.35;;;14.75;;
56999;SDS011;42891;50.006;21.964;2023-11-21T22:28:11;23.33;;;13.40;;
56999;SDS011;42891;50.006;21.964;2023-11-21T22:32:12;19.17;;;12.00;;
56999;SDS011;42891;50.006;21.964;2023-11-21T22:36:12;16.52;;;10.32;;
56999;SDS011;42891;50.006;21.964;2023-11-21T22:40:14;14.30;;;9.50;;
56999;SDS011;42891;50.006;21.964;2023-11-21T22:44:15;11.30;;;8.35;;
56999;SDS011;42891;50.006;21.964;2023-11-21T22:48:15;12.10;;;8.00;;
56999;SDS011;42891;50.006;21.964;2023-11-21T22:52:15;10.88;;;8.23;;
56999;SDS011;42891;50.006;21.964;2023-11-21T22:56:15;12.43;;;8.60;;
56999;SDS011;42891;50.006;21.964;2023-11-21T23:00:17;13.05;;;8.70;;
56999;SDS011;42891;50.006;21.964;2023-11-21T23:04:21;14.88;;;9.35;;
56999;SDS011;42891;50.006;21.964;2023-11-21T23:08:22;14.07;;;9.35;;
56999;SDS011;42891;50.006;21.964;2023-11-21T23:12:22;12.27;;;8.55;;
56999;SDS011;42891;50.006;21.964;2023-11-21T23:16:23;13.47;;;8.73;;
56999;SDS011;42891;50.006;21.964;2023-11-21T23:20:23;11.50;;;9.13;;
56999;SDS011;42891;50.006;21.964;2023-11-21T23:24:23;13.93;;;9.00;;
56999;SDS011;42891;50.006;21.964;2023-11-21T23:28:24;14.02;;;10.23;;
56999;SDS011;42891;50.006;21.964;2023-11-21T23:32:25;15.85;;;10.15;;
56999;SDS011;42891;50.006;21.964;2023-11-21T23:36:26;16.33;;;10.15;;
56999;SDS011;42891;50.006;21.964;2023-11-21T23:40:26;15.30;;;11.10;;
56999;SDS011;42891;50.006;21.964;2023-11-21T23:44:27;15.95;;;10.82;;
56999;SDS011;42891;50.006;21.964;2023-11-21T23:48:28;17.13;;;12.10;;